Terminal Aerodrome Forecast
Issued by NWS Quad Cities IA IL

Home | Current Version | Previous Version | Text Only | Print | Product List | Glossary On
Versions: 1 2 3 4 5 6 7 8 9 10 11 12 13 14 15 16 17 18 19 20 21
000
FTUS43 KDVN 261700
TAFMLI
TAF
KMLI 261723Z 2618/2718 06007KT P6SM BKN150
     FM262000 16007KT P6SM VCTS SCT035CB BKN150
      TEMPO 2622/2701 3SM TSRA BR BKN030CB
     FM270100 VRB03KT P6SM SCT035 BKN200
     FM270600 29004KT P6SM SCT250
     FM271300 29008KT P6SM FEW250
     FM271500 30016G21KT P6SM FEW060=

USA.gov is the U.S. government's official web portal to all federal, state and local government web resources and services.